Limestone, ME (04750)

6:32 PM EDT on August 03, 2015 (GMT -0400)
Caribou Municipal | | Change Station
CLOSE
Current Station
Airport
Location: Caribou,
Elevation: 623 ft
Nearby Weather Stations

Elev 623 ft 46.87 °N, 68.02 °W | Updated 15 minutes ago

Overcast
Overcast
65 °F
Feels Like 65 °F
N
7
Wind Variable Wind from Variable

Today
High -- | Low -- °F
--% Chance of Precip.
Yesterday
High -- | Low -- °F
Precip. -- in
5:13 AM 8:01 PM
Waning Gibbous, 83% visible
Pressure 29.73 in
Visibility 10.0 miles
Clouds Mostly Cloudy 8000 ft
Mostly Cloudy 9500 ft
Overcast 11000 ft
Dew Point 59 °F
Humidity 81%
Rainfall 0.48 in
Snow Depth Not available.
UV 0 out of 12
Pollen 5.80 out of 12
Air Quality Not available.
Flu Activity Not available.
SPECI KCAR 032217Z AUTO VRB06KT 10SM -TSRA BKN080 BKN095 OVC110 18/15 A2973 RMK AO2 LTG DSNT ALQDS TSE2158B11 P0003 T01830150

More Conditions Fewer Conditions

Pressure 29.73 in
Visibility 10.0 miles
Clouds Mostly Cloudy 8000 ft
Mostly Cloudy 9500 ft
Overcast 11000 ft
Dew Point 59 °F
Humidity 81%
Rainfall 0.48 in
Snow Depth Not available.
UV 0 out of 12
Pollen 5.80 out of 12
Air Quality Not available.
Flu Activity Not available.
SPECI KCAR 032217Z AUTO VRB06KT 10SM -TSRA BKN080 BKN095 OVC110 18/15 A2973 RMK AO2 LTG DSNT ALQDS TSE2158B11 P0003 T01830150

More Conditions Fewer Conditions

10-Day Weather Forecast

×

Almanac

Astronomy

Aug. 03, 2015 Rise Set
Actual Time
Civil Twilight
Nautical Twilight
Astronomical Twilight
Moon
Length of Visible Light
Length of Day
Tomorrow will be .
, % of the Moon is Illuminated

Today's Extremes

State Highs State Lows

Community

WunderPhotos

Upload Photos

1,843,785 photos uploaded!

WunderBlogs® & News

Nearby

Air Quality

  Air Quality AQ Index Pollutant
Not available.

Snow Depth

Station Depth Elevation

Earthquake Activity

City Distance Mag. Time & Date
Minimum magnitude displayed is 2.5.

Coastal Water Temperatures

Place Temperature

Stations

Nearby Weather Stations

Station Location Temp. Windchill Dew Point Humidity Wind Precip. Elev Updated Type
                   
Severe Thunderstorm Warning
Statement as of 6:30 PM EDT on August 03, 2015

... The Severe Thunderstorm Warning for east Central Aroostook County
will expire at 630 PM EDT...

the storm which prompted the warning has moved out of the area.
Therefore the warning will be allowed to expire.

A Severe Thunderstorm Watch remains in effect until 900 PM EDT for
northern Maine.

Lat... Lon 4707 6779 4672 6779 4653 6817 4689 6845
time... Mot... loc 2228z 238deg 47kt 4709 6744


Norcross


Severe Thunderstorm Watch
Statement as of 6:24 PM EDT on August 03, 2015

Severe Thunderstorm Watch 466 remains in effect until 900 PM EDT
for the following locations


ME
. Maine counties included are

Aroostook Franklin Oxford
Penobscot Piscataquis Somerset